Barrow: Past 24 Hour Conditions

 

Puvirnituq Airport

11:00 AM EDT 31 October 2014
This table is a summary of hourly weather conditions for the past 24 hours.
Date / Time
(EDT)
Wind(knots) Conditions Visibility(km) Pressure(kPa) Air tempC) Relative humidity(%) Dew pointC) Wind Chill
31 October 2014
11:00 NNW 17 gust 25 Cloudy 24 101.2 -3 83 -6 -11
10:00 NNW 19 gust 27 Cloudy 24 101.2 -3 83 -6 -11
9:00 NNW 17 gust 24 Cloudy 24 101.2 -3 85 -5 -11
8:00 NNW 17 gust 25 Cloudy 18 101.1 -3 85 -6 -11
7:00 NW 23 gust 29 Light Snow 16 101.0 -4 91 -5 -12
6:00 NW 17 Light Snow 15 101.0 -4 92 -5 -12
5:00 NNW 16 gust 23 Mostly Cloudy 16 101.0 -4 89 -6 -12
4:00 NNW 17 gust 22 Light Snow 16 100.9 -5 89 -6 -13
3:00 N 20 Cloudy 24 100.9 -5 91 -6 -14
2:00 N 18 Cloudy 24 100.9 -5 89 -6 -13
1:00 N 21 gust 26 Light Snow 24 100.8 -5 87 -6 -13
0:00 N 22 Light Snow 24 100.8 -4 89 -6 -13
30 October 2014
23:00 N 25 gust 32 Cloudy 24 100.8 -4 85 -7 -14
22:00 N 25 gust 34 Cloudy 24 100.8 -5 87 -6 -14
21:00 N 27 gust 32 Light Snow 19 100.8 -5 87 -6 -14
20:00 N 28 gust 33 Drifting Snow 19 100.7 -4 86 -6 -14
19:00 N 23 gust 34 Light Snow 15 100.6 -4 90 -6 -13
18:00 N 26 Light Snow 15 100.6 -4 88 -6 -13
17:00 NNW 20 gust 31 Light Snow 5 100.6 -4 86 -6 -12
16:00 NNW 19 gust 29 Light Snow 5 100.5 -4 88 -6 -12
15:00 NNW 22 gust 31 Light Snow 3 100.5 -4 89 -5 -12
14:00 NNW 22 gust 31 Light Snow 5 100.4 -4 91 -5 -12
13:00 NNW 19 gust 30 Light Snow 3 100.4 -4 88 -6 -12
12:00 NNW 23 gust 33 Light Snow 2 100.3 -4 88 -6 -13
11:00 N 21 gust 32 Light Snow 4 100.3 -4 86 -6 -13
 
Map of Arctic - Eastern Arctic marine weather areas Baker Lake Airport Chesterfield Inlet Airport Coral Harbour Airport Gjoa Haven Airport Kugaaruk Airport Rankin Inlet Airport Shepherd Bay Airport Whale Cove Airport Arctic Bay Brevoort Island Qikiqtarjuaq Airport Cape Dorset Airport Cape Dyer Cape Hooper Clyde Airport Grise Fiord Airport Hall Beach Airport Igloolik Airport Iqaluit Airport Longstaff Bluff Pangnirtung Airport Pond Inlet Airport Repulse Bay Airport Resolute Airport Resolution Island Rowley Island Airport Taloyoak Airport Wager Bay Akulivik Airport Ivujivik Airport Puvirnituq Airport Kangiqsujuaq Airport Kangirsuk Airport Quaqtaq Airport Tasiujaq Airport Cape Kakkiviak Cape Kiglapait Nain Airport Saglek Cape Mercy Kimmirut Airport Aupaluk Airport Salluit Airport Kangiqsualujjuaq Airport Fort Ross
Legend: buoyBuoy land stationLand Station